createdAt,value
2018-07-20T00:01:57.106Z,76.55
2018-07-20T00:04:25.938Z,76.82
2018-07-20T00:06:54.789Z,77.43
2018-07-20T00:09:23.593Z,77.47
2018-07-20T00:11:52.406Z,77.32
2018-07-20T00:14:21.351Z,76.95
2018-07-20T00:16:50.168Z,77.01
2018-07-20T00:19:19.127Z,76.63
2018-07-20T00:21:47.915Z,77.47
2018-07-20T00:24:16.687Z,77.61
2018-07-20T00:26:45.497Z,77.08
2018-07-20T00:29:14.286Z,77.01
2018-07-20T00:31:43.086Z,76.75
2018-07-20T00:34:11.928Z,76.95
2018-07-20T00:36:40.771Z,76.70
2018-07-20T00:39:10.850Z,76.84
2018-07-20T00:41:40.082Z,76.91
2018-07-20T00:44:08.866Z,76.48
2018-07-20T00:46:37.678Z,76.21
2018-07-20T00:49:06.574Z,76.19
2018-07-20T00:51:35.487Z,76.65
2018-07-20T00:54:04.404Z,76.23
2018-07-20T00:56:33.286Z,76.57
2018-07-20T00:59:02.146Z,76.44
2018-07-20T01:01:31.053Z,75.54
2018-07-20T01:03:59.818Z,75.51
2018-07-20T01:06:28.637Z,75.34
2018-07-20T01:08:57.463Z,75.86
2018-07-20T01:11:26.311Z,75.29
2018-07-20T01:13:55.120Z,75.75
2018-07-20T01:16:23.915Z,75.50
2018-07-20T01:18:52.742Z,75.29
2018-07-20T01:21:21.605Z,75.69
2018-07-20T01:23:50.409Z,75.48
2018-07-20T01:26:19.178Z,74.74
2018-07-20T01:28:47.943Z,75.00
2018-07-20T01:31:16.781Z,74.55
2018-07-20T01:33:45.622Z,74.76
2018-07-20T01:36:14.798Z,74.61
2018-07-20T01:38:43.888Z,75.23
2018-07-20T01:41:12.803Z,75.06
2018-07-20T01:43:41.599Z,74.47
2018-07-20T01:46:10.795Z,74.98
2018-07-20T01:48:39.693Z,74.63
2018-07-20T01:51:08.581Z,74.89
2018-07-20T01:53:37.374Z,75.05
2018-07-20T01:56:06.193Z,74.36
2018-07-20T01:58:34.969Z,74.81
2018-07-20T02:01:03.846Z,74.38
2018-07-20T02:03:32.739Z,74.77
2018-07-20T02:06:01.598Z,74.40
2018-07-20T02:08:30.419Z,74.60
2018-07-20T02:11:01.072Z,74.30
2018-07-20T02:13:29.885Z,73.46
2018-07-20T02:15:59.133Z,74.38
2018-07-20T02:18:27.912Z,74.51
2018-07-20T02:20:56.729Z,73.76
2018-07-20T02:23:25.564Z,74.29
2018-07-20T02:25:54.641Z,74.47
2018-07-20T02:28:23.462Z,74.38
2018-07-20T02:30:52.262Z,74.32
2018-07-20T02:33:21.082Z,73.75
2018-07-20T02:35:49.864Z,74.21
2018-07-20T02:38:18.648Z,73.53
2018-07-20T02:40:47.456Z,74.12
2018-07-20T02:43:16.282Z,74.02
2018-07-20T02:45:45.089Z,74.05
2018-07-20T02:48:13.861Z,74.18
2018-07-20T02:50:42.695Z,73.50
2018-07-20T02:53:11.500Z,73.89
2018-07-20T02:55:40.265Z,73.55
2018-07-20T02:58:09.049Z,74.27
2018-07-20T03:00:37.833Z,73.54
2018-07-20T03:03:06.651Z,74.51
2018-07-20T03:05:35.434Z,73.87
2018-07-20T03:08:04.273Z,73.54
2018-07-20T03:10:33.082Z,74.54
2018-07-20T03:13:01.883Z,74.92
2018-07-20T03:15:30.689Z,74.38
2018-07-20T03:17:59.579Z,74.77
2018-07-20T03:20:28.359Z,74.50
2018-07-20T03:22:57.199Z,75.34
2018-07-20T03:25:25.963Z,74.81
2018-07-20T03:27:55.079Z,74.88
2018-07-20T03:30:23.924Z,74.62
2018-07-20T03:32:52.865Z,74.65
2018-07-20T03:35:21.789Z,75.00
2018-07-20T03:37:50.578Z,74.61
2018-07-20T03:40:19.791Z,74.46
2018-07-20T03:42:48.601Z,74.20
2018-07-20T03:45:17.405Z,74.04
2018-07-20T03:47:46.250Z,74.91
2018-07-20T03:50:15.061Z,74.69
2018-07-20T03:52:43.847Z,74.08
2018-07-20T03:55:12.669Z,73.30
2018-07-20T03:57:41.481Z,73.41
2018-07-20T04:00:16.958Z,73.05
2018-07-20T04:02:45.811Z,72.75
2018-07-20T04:05:14.688Z,73.36
2018-07-20T04:07:44.379Z,73.00
2018-07-20T04:10:13.274Z,72.64
2018-07-20T04:12:42.186Z,71.47
2018-07-20T04:15:11.074Z,72.11
2018-07-20T04:17:44.686Z,70.98
2018-07-20T04:20:14.954Z,70.52
2018-07-20T04:22:43.940Z,70.42
2018-07-20T04:25:12.870Z,70.83
2018-07-20T04:27:42.117Z,70.07
2018-07-20T04:30:13.526Z,70.21
2018-07-20T04:32:42.372Z,68.92
2018-07-20T04:35:11.919Z,69.19
2018-07-20T04:37:40.699Z,69.86
2018-07-20T04:40:09.526Z,68.43
2018-07-20T04:42:38.368Z,69.58
2018-07-20T04:45:07.583Z,68.70
2018-07-20T04:47:36.382Z,69.84
2018-07-20T04:50:06.340Z,69.28
2018-07-20T04:52:35.162Z,69.76
2018-07-20T04:55:04.314Z,69.58
2018-07-20T04:57:33.154Z,70.41
2018-07-20T05:00:01.912Z,70.18
2018-07-20T05:02:30.699Z,70.63
2018-07-20T05:04:59.524Z,71.04
2018-07-20T05:07:28.326Z,70.51
2018-07-20T05:09:57.140Z,70.96
2018-07-20T05:12:25.955Z,70.39
2018-07-20T05:14:54.812Z,69.47
2018-07-20T05:17:23.685Z,70.38
2018-07-20T05:19:52.500Z,70.07
2018-07-20T05:22:21.317Z,69.87
2018-07-20T05:24:50.124Z,69.40
2018-07-20T05:27:18.984Z,68.39
2018-07-20T05:29:47.758Z,66.20
2018-07-20T05:32:16.609Z,66.40
2018-07-20T05:34:45.436Z,65.17
2018-07-20T05:37:14.225Z,64.64
2018-07-20T05:39:43.177Z,64.63
2018-07-20T05:42:11.945Z,65.90
2018-07-20T05:44:40.730Z,65.40
2018-07-20T05:47:09.566Z,64.59
2018-07-20T05:49:38.399Z,64.33
2018-07-20T05:52:07.283Z,63.82
2018-07-20T05:54:36.084Z,64.42
2018-07-20T05:57:05.010Z,63.39
2018-07-20T05:59:33.806Z,63.58
2018-07-20T06:02:02.618Z,63.21
2018-07-20T06:04:31.417Z,64.59
2018-07-20T06:07:00.208Z,63.32
2018-07-20T06:09:29.054Z,61.91
2018-07-20T06:11:57.879Z,61.64
2018-07-20T06:14:26.704Z,62.89
2018-07-20T06:16:55.545Z,62.10
2018-07-20T06:19:24.389Z,62.16
2018-07-20T06:21:53.180Z,61.78
2018-07-20T06:24:22.199Z,62.82
2018-07-20T06:26:51.654Z,60.61
2018-07-20T06:29:20.539Z,59.81
2018-07-20T06:31:49.340Z,60.32
2018-07-20T06:34:18.173Z,60.63
2018-07-20T06:36:47.319Z,60.98
2018-07-20T06:39:16.168Z,61.16
2018-07-20T06:41:45.778Z,61.66
2018-07-20T06:44:14.602Z,60.53
2018-07-20T06:46:43.652Z,60.87
2018-07-20T06:49:12.475Z,60.14
2018-07-20T06:51:41.281Z,60.84
2018-07-20T06:54:10.229Z,60.96
2018-07-20T06:56:39.015Z,59.76
2018-07-20T06:59:08.720Z,59.75
2018-07-20T07:01:38.450Z,58.91
2018-07-20T07:04:07.622Z,58.63
2018-07-20T07:06:37.024Z,59.63
2018-07-20T07:09:08.597Z,59.21
2018-07-20T07:11:37.658Z,58.20
2018-07-20T07:14:06.435Z,58.08
2018-07-20T07:16:35.361Z,59.21
2018-07-20T07:19:04.193Z,58.13
2018-07-20T07:21:33.002Z,58.35
2018-07-20T07:24:01.861Z,57.72
2018-07-20T07:26:30.658Z,58.07
2018-07-20T07:28:59.451Z,58.09
2018-07-20T07:31:28.239Z,56.83
2018-07-20T07:33:57.010Z,56.53
2018-07-20T07:36:25.865Z,56.60
2018-07-20T07:38:54.630Z,55.89
2018-07-20T07:41:23.394Z,56.53
2018-07-20T07:43:52.590Z,56.41
2018-07-20T07:46:22.074Z,56.90
2018-07-20T07:48:50.880Z,56.49
2018-07-20T07:51:19.982Z,55.85
2018-07-20T07:53:48.806Z,55.34
2018-07-20T07:56:17.640Z,55.82
2018-07-20T07:58:47.297Z,55.79
2018-07-20T08:01:16.132Z,55.30
2018-07-20T08:03:44.934Z,56.66
2018-07-20T08:06:13.699Z,56.50
2018-07-20T08:08:43.226Z,56.98
2018-07-20T08:11:12.033Z,56.18
2018-07-20T08:13:40.838Z,54.16
2018-07-20T08:16:09.663Z,55.41
2018-07-20T08:18:38.649Z,54.89
2018-07-20T08:21:07.995Z,53.22
2018-07-20T08:23:36.802Z,54.28
2018-07-20T08:26:05.930Z,53.55
2018-07-20T08:28:34.826Z,53.84
2018-07-20T08:31:03.708Z,54.08
2018-07-20T08:33:32.552Z,54.66
2018-07-20T08:36:01.434Z,54.94
2018-07-20T08:38:30.259Z,55.16
2018-07-20T08:40:59.151Z,55.86
2018-07-20T08:43:27.932Z,55.20
2018-07-20T08:45:56.706Z,54.87
2018-07-20T08:48:25.557Z,55.35
2018-07-20T08:50:54.418Z,54.45
2018-07-20T08:53:23.209Z,53.65
2018-07-20T08:55:52.118Z,54.31
2018-07-20T08:58:20.959Z,53.04
2018-07-20T09:00:49.769Z,52.50
2018-07-20T09:03:18.592Z,53.99
2018-07-20T09:05:47.413Z,53.47
2018-07-20T09:08:16.213Z,53.52
2018-07-20T09:10:45.145Z,53.29
2018-07-20T09:13:13.941Z,52.64
2018-07-20T09:15:42.796Z,54.96
2018-07-20T09:18:11.581Z,53.87
2018-07-20T09:20:40.460Z,53.06
2018-07-20T09:23:09.857Z,53.06
2018-07-20T09:25:38.657Z,52.33
2018-07-20T09:28:07.869Z,52.79
2018-07-20T09:30:36.678Z,51.26
2018-07-20T09:33:05.855Z,51.15
2018-07-20T09:35:34.927Z,50.39
2018-07-20T09:38:03.718Z,50.94
2018-07-20T09:40:39.188Z,49.19
2018-07-20T09:43:07.976Z,50.06
2018-07-20T09:45:36.786Z,49.67
2018-07-20T09:48:05.729Z,50.88
2018-07-20T09:50:34.516Z,50.83
2018-07-20T09:53:03.324Z,50.83
2018-07-20T09:55:32.108Z,51.37
2018-07-20T09:58:00.934Z,50.61
2018-07-20T10:00:34.955Z,52.08
2018-07-20T10:03:03.823Z,52.21
2018-07-20T10:05:32.781Z,50.76
2018-07-20T10:08:01.690Z,51.90
2018-07-20T10:10:31.216Z,51.71
2018-07-20T10:13:00.079Z,50.91
2018-07-20T10:15:28.858Z,50.15
2018-07-20T10:17:57.681Z,51.00
2018-07-20T10:20:26.701Z,51.30
2018-07-20T10:22:55.521Z,51.72
2018-07-20T10:25:24.323Z,52.45
2018-07-20T10:27:53.114Z,49.87
2018-07-20T10:30:21.941Z,49.32
2018-07-20T10:32:50.739Z,49.63
2018-07-20T10:35:19.658Z,49.94
2018-07-20T10:37:48.872Z,48.43
2018-07-20T10:40:17.705Z,49.58
2018-07-20T10:42:46.870Z,49.50
2018-07-20T10:45:15.830Z,49.50
2018-07-20T10:47:44.603Z,49.78
2018-07-20T10:50:13.449Z,49.72
2018-07-20T10:52:42.243Z,50.56
2018-07-20T10:55:11.098Z,48.42
2018-07-20T10:57:39.974Z,49.72
2018-07-20T11:00:09.123Z,50.38
2018-07-20T11:02:37.942Z,49.99
2018-07-20T11:05:07.119Z,47.46
2018-07-20T11:07:35.962Z,48.79
2018-07-20T11:10:05.055Z,48.94
2018-07-20T11:12:33.875Z,49.92
2018-07-20T11:15:02.725Z,51.22
2018-07-20T11:17:31.659Z,50.96
2018-07-20T11:20:00.420Z,51.68
2018-07-20T11:22:30.038Z,51.56
2018-07-20T11:24:58.880Z,50.22
2018-07-20T11:27:27.709Z,50.73
2018-07-20T11:29:56.581Z,49.39
2018-07-20T11:32:25.359Z,49.64
2018-07-20T11:34:54.154Z,51.23
2018-07-20T11:37:30.649Z,49.76
2018-07-20T11:40:08.405Z,50.26
2018-07-20T11:42:37.593Z,50.30
2018-07-20T11:45:06.873Z,51.02
2018-07-20T11:47:35.673Z,50.87
2018-07-20T11:50:05.309Z,51.59
2018-07-20T11:52:34.132Z,51.94
2018-07-20T11:55:02.998Z,51.53
2018-07-20T11:57:31.784Z,51.22
2018-07-20T12:00:00.626Z,50.58
2018-07-20T12:02:30.054Z,50.23
2018-07-20T12:04:58.814Z,50.82
2018-07-20T12:07:27.641Z,51.61
2018-07-20T12:09:56.517Z,51.08
2018-07-20T12:12:26.021Z,51.88
2018-07-20T12:14:54.893Z,53.08
2018-07-20T12:17:23.804Z,52.60
2018-07-20T12:19:52.644Z,52.44
2018-07-20T12:22:21.510Z,53.84
2018-07-20T12:24:50.410Z,52.94
2018-07-20T12:27:19.280Z,53.32
2018-07-20T12:29:48.162Z,51.69
2018-07-20T12:32:16.993Z,51.75
2018-07-20T12:34:45.913Z,50.52
2018-07-20T12:37:14.774Z,49.78
2018-07-20T12:39:43.645Z,50.54
2018-07-20T12:42:12.535Z,49.72
2018-07-20T12:44:41.340Z,50.33
2018-07-20T12:47:10.537Z,51.53
2018-07-20T12:49:39.326Z,51.41
2018-07-20T12:52:08.229Z,51.11
2018-07-20T12:54:37.029Z,51.28
2018-07-20T12:57:06.233Z,49.88
2018-07-20T12:59:35.029Z,50.29
2018-07-20T13:02:03.857Z,49.79
2018-07-20T13:04:32.645Z,49.75
2018-07-20T13:07:01.435Z,48.33
2018-07-20T13:09:30.301Z,49.12
2018-07-20T13:11:59.414Z,50.30
2018-07-20T13:14:28.307Z,49.44
2018-07-20T13:16:57.122Z,48.07
2018-07-20T13:19:25.920Z,48.70
2018-07-20T13:21:54.709Z,48.61
2018-07-20T13:24:23.510Z,49.50
2018-07-20T13:26:52.339Z,49.42
2018-07-20T13:29:21.195Z,49.68
2018-07-20T13:31:49.986Z,50.00
2018-07-20T13:34:18.790Z,50.41
2018-07-20T13:36:47.635Z,49.96
2018-07-20T13:39:16.458Z,48.72
2018-07-20T13:41:45.696Z,48.74
2018-07-20T13:44:14.562Z,48.81
2018-07-20T13:46:43.788Z,50.25
2018-07-20T13:49:12.588Z,49.09
2018-07-20T13:51:41.372Z,48.93
2018-07-20T13:54:10.167Z,49.70
2018-07-20T13:56:39.472Z,50.64
2018-07-20T13:59:08.275Z,50.02
2018-07-20T14:01:37.535Z,49.43
2018-07-20T14:04:06.648Z,50.27
2018-07-20T14:06:35.446Z,49.49
2018-07-20T14:09:06.241Z,50.02
2018-07-20T14:11:35.088Z,50.00
2018-07-20T14:14:04.055Z,50.53
2018-07-20T14:16:32.892Z,50.82
2018-07-20T14:19:01.732Z,50.83
2018-07-20T14:21:30.549Z,50.42
2018-07-20T14:23:59.371Z,48.43
2018-07-20T14:26:28.192Z,49.45
2018-07-20T14:28:59.308Z,49.42
2018-07-20T14:31:28.482Z,49.54
2018-07-20T14:33:57.444Z,50.01
2018-07-20T14:36:26.354Z,48.91
2018-07-20T14:38:55.132Z,49.60
2018-07-20T14:41:23.975Z,48.87
2018-07-20T14:43:54.053Z,49.15
2018-07-20T14:46:22.896Z,48.84
2018-07-20T14:48:51.745Z,48.83
2018-07-20T14:51:20.604Z,50.46
2018-07-20T14:53:49.378Z,49.90
2018-07-20T14:56:18.539Z,51.21
2018-07-20T14:58:47.485Z,50.38
2018-07-20T15:01:16.354Z,51.42
2018-07-20T15:03:45.159Z,50.40
2018-07-20T15:06:13.996Z,50.36
2018-07-20T15:08:42.846Z,50.16
2018-07-20T15:11:11.847Z,50.43
2018-07-20T15:13:40.610Z,50.48
2018-07-20T15:16:09.438Z,50.72
2018-07-20T15:18:38.271Z,51.39
2018-07-20T15:21:07.207Z,52.10
2018-07-20T15:23:36.010Z,52.39
2018-07-20T15:26:04.821Z,52.17
2018-07-20T15:28:33.664Z,52.01
2018-07-20T15:31:02.459Z,50.96
2018-07-20T15:33:33.117Z,51.90
2018-07-20T15:36:01.962Z,51.68
2018-07-20T15:38:30.773Z,52.09
2018-07-20T15:40:59.602Z,51.49
2018-07-20T15:43:28.599Z,50.75
2018-07-20T15:46:05.899Z,49.93
2018-07-20T15:48:26.436Z,50.22
2018-07-20T15:50:55.264Z,50.61
2018-07-20T15:53:38.978Z,50.86
2018-07-20T15:55:52.854Z,50.46
2018-07-20T15:58:21.659Z,50.49
2018-07-20T16:00:50.448Z,51.21
2018-07-20T16:03:19.245Z,50.15
2018-07-20T16:05:49.857Z,50.34
2018-07-20T16:08:18.982Z,51.48
2018-07-20T16:10:53.630Z,50.57
2018-07-20T16:13:23.231Z,49.26
2018-07-20T16:15:52.006Z,49.00
2018-07-20T16:18:20.772Z,49.55
2018-07-20T16:20:49.590Z,50.38
2018-07-20T16:23:18.403Z,49.77
2018-07-20T16:25:47.331Z,48.95
2018-07-20T16:28:16.276Z,49.27
2018-07-20T16:30:46.634Z,48.74
2018-07-20T16:33:15.413Z,49.05
2018-07-20T16:35:44.262Z,49.22
2018-07-20T16:38:13.074Z,49.43
2018-07-20T16:40:41.912Z,49.63
2018-07-20T16:43:10.802Z,49.14
2018-07-20T16:45:39.659Z,49.05
2018-07-20T16:48:08.425Z,49.92
2018-07-20T16:50:37.241Z,48.89
2018-07-20T16:53:06.150Z,49.01
2018-07-20T16:55:35.013Z,49.23
2018-07-20T16:58:03.841Z,50.33
2018-07-20T17:00:32.633Z,50.60
2018-07-20T17:03:01.414Z,50.61
2018-07-20T17:05:30.297Z,50.92
2018-07-20T17:07:59.085Z,50.65
2018-07-20T17:10:27.870Z,51.15
2018-07-20T17:12:56.873Z,51.47
2018-07-20T17:15:25.663Z,52.55
2018-07-20T17:17:54.774Z,52.21
2018-07-20T17:20:23.567Z,52.17
2018-07-20T17:22:52.489Z,51.86
2018-07-20T17:25:21.308Z,51.35
2018-07-20T17:27:50.129Z,51.23
2018-07-20T17:30:19.146Z,51.33
2018-07-20T17:32:47.951Z,51.68
2018-07-20T17:35:16.739Z,52.02
2018-07-20T17:37:45.617Z,51.74
2018-07-20T17:40:14.816Z,51.76
2018-07-20T17:42:43.609Z,52.89
2018-07-20T17:45:12.478Z,52.94
2018-07-20T17:47:41.425Z,52.82
2018-07-20T17:50:10.201Z,53.62
2018-07-20T17:52:39.296Z,53.78
2018-07-20T17:55:08.429Z,53.90
2018-07-20T17:57:37.199Z,53.52
2018-07-20T18:00:07.488Z,54.95
2018-07-20T18:02:36.291Z,55.09
2018-07-20T18:05:05.336Z,55.54
2018-07-20T18:07:34.729Z,55.31
2018-07-20T18:10:03.553Z,55.58
2018-07-20T18:12:32.422Z,56.75
2018-07-20T18:15:01.249Z,56.23
2018-07-20T18:17:30.097Z,56.49
2018-07-20T18:19:58.909Z,57.37
2018-07-20T18:22:27.797Z,57.41
2018-07-20T18:24:56.961Z,57.37
2018-07-20T18:27:26.176Z,57.86
2018-07-20T18:29:55.151Z,57.04
2018-07-20T18:32:23.933Z,56.67
2018-07-20T18:34:52.817Z,56.96
2018-07-20T18:37:21.671Z,56.75
2018-07-20T18:39:50.431Z,57.87
2018-07-20T18:42:19.266Z,57.71
2018-07-20T18:44:48.110Z,56.61
2018-07-20T18:47:17.022Z,56.73
2018-07-20T18:49:45.879Z,56.59
2018-07-20T18:52:14.669Z,57.29
2018-07-20T18:54:43.511Z,56.51
2018-07-20T18:57:12.361Z,57.23
2018-07-20T18:59:41.238Z,56.32
2018-07-20T19:02:11.066Z,56.57
2018-07-20T19:04:40.172Z,56.88
2018-07-20T19:07:09.066Z,56.29
2018-07-20T19:09:37.852Z,56.66
2018-07-20T19:12:06.745Z,56.36
2018-07-20T19:14:35.582Z,56.14
2018-07-20T19:17:04.483Z,56.93
2018-07-20T19:19:33.390Z,56.48
2018-07-20T19:22:02.209Z,55.98
2018-07-20T19:24:31.422Z,55.97
2018-07-20T19:27:00.181Z,55.60
2018-07-20T19:29:30.883Z,56.58
2018-07-20T19:31:59.682Z,56.24
2018-07-20T19:34:28.761Z,55.23
2018-07-20T19:36:57.719Z,55.50
2018-07-20T19:39:26.526Z,55.72
2018-07-20T19:41:55.345Z,56.61
2018-07-20T19:44:24.197Z,55.82
2018-07-20T19:46:52.974Z,55.66
2018-07-20T19:49:21.785Z,55.68
2018-07-20T19:51:50.870Z,56.24
2018-07-20T19:54:20.196Z,55.33
2018-07-20T19:56:49.084Z,55.84
2018-07-20T19:59:17.969Z,56.86
2018-07-20T20:01:46.783Z,56.03
2018-07-20T20:04:15.745Z,56.77
2018-07-20T20:06:44.678Z,55.80
2018-07-20T20:09:13.458Z,55.79
2018-07-20T20:11:42.252Z,56.03
2018-07-20T20:14:11.060Z,56.49
2018-07-20T20:16:39.846Z,56.56
2018-07-20T20:19:08.638Z,56.10
2018-07-20T20:21:37.493Z,56.62
2018-07-20T20:24:06.321Z,55.90
2018-07-20T20:26:35.166Z,56.67
2018-07-20T20:29:03.990Z,56.16
2018-07-20T20:31:33.164Z,55.97
2018-07-20T20:34:02.018Z,56.47
2018-07-20T20:36:30.845Z,56.26
2018-07-20T20:38:59.676Z,56.17
2018-07-20T20:41:28.450Z,55.93
2018-07-20T20:43:57.328Z,56.05
2018-07-20T20:46:27.516Z,55.94
2018-07-20T20:48:56.287Z,56.11
2018-07-20T20:51:25.084Z,55.40
2018-07-20T20:53:53.872Z,56.44
2018-07-20T20:56:22.664Z,55.90
2018-07-20T20:58:51.461Z,56.38
2018-07-20T21:01:20.757Z,56.28
2018-07-20T21:03:49.897Z,56.47
2018-07-20T21:06:18.793Z,56.32
2018-07-20T21:08:47.681Z,56.41
2018-07-20T21:11:16.489Z,56.76
2018-07-20T21:13:45.363Z,56.57
2018-07-20T21:16:14.149Z,56.73
2018-07-20T21:18:42.952Z,57.54
2018-07-20T21:21:11.753Z,57.32
2018-07-20T21:23:40.541Z,57.33
2018-07-20T21:26:09.480Z,56.72
2018-07-20T21:28:38.262Z,57.20
2018-07-20T21:31:07.213Z,57.01
2018-07-20T21:33:36.050Z,57.58
2018-07-20T21:36:04.942Z,57.33
2018-07-20T21:38:33.689Z,57.06
2018-07-20T21:41:02.408Z,57.37
2018-07-20T21:43:31.212Z,57.20
2018-07-20T21:46:00.457Z,56.55
2018-07-20T21:48:29.250Z,56.73
2018-07-20T21:50:58.016Z,56.33
2018-07-20T21:53:26.815Z,55.67
2018-07-20T21:55:55.603Z,55.49
2018-07-20T21:58:24.393Z,55.94
2018-07-20T22:00:53.566Z,55.54
2018-07-20T22:03:22.539Z,54.77
2018-07-20T22:05:51.290Z,55.98
2018-07-20T22:08:20.138Z,55.36
2018-07-20T22:10:48.887Z,54.71
2018-07-20T22:13:17.727Z,55.49
2018-07-20T22:15:46.510Z,55.44
2018-07-20T22:18:15.282Z,54.60
2018-07-20T22:20:44.158Z,54.29
2018-07-20T22:23:12.998Z,54.77
2018-07-20T22:25:41.965Z,55.08
2018-07-20T22:28:10.750Z,54.29
2018-07-20T22:30:39.513Z,54.03
2018-07-20T22:33:08.256Z,54.50
2018-07-20T22:35:37.050Z,53.70
2018-07-20T22:38:05.869Z,53.90
2018-07-20T22:40:34.614Z,53.78
2018-07-20T22:43:03.418Z,54.10
2018-07-20T22:45:32.253Z,55.08
2018-07-20T22:48:00.992Z,53.85
2018-07-20T22:50:29.765Z,54.64
2018-07-20T22:52:58.513Z,54.19
2018-07-20T22:55:27.264Z,54.43
2018-07-20T22:57:56.068Z,53.95
2018-07-20T23:00:24.860Z,53.91
2018-07-20T23:02:53.659Z,55.15
2018-07-20T23:05:22.622Z,55.01
2018-07-20T23:07:51.361Z,54.72
2018-07-20T23:10:20.150Z,54.16
2018-07-20T23:12:48.945Z,54.69
2018-07-20T23:15:17.755Z,54.24
2018-07-20T23:17:47.508Z,54.84
2018-07-20T23:20:16.369Z,54.13
2018-07-20T23:22:45.146Z,54.96
2018-07-20T23:25:13.906Z,55.08
2018-07-20T23:30:10.531Z,54.87
2018-07-20T23:32:39.299Z,55.12
2018-07-20T23:35:08.191Z,55.18
2018-07-20T23:37:36.960Z,54.26
2018-07-20T23:40:06.722Z,54.23
2018-07-20T23:42:35.505Z,55.22
2018-07-20T23:45:04.629Z,54.74
2018-07-20T23:47:33.405Z,55.42
2018-07-20T23:50:02.202Z,55.62
2018-07-20T23:52:31.004Z,55.45
2018-07-20T23:54:59.797Z,55.17
2018-07-20T23:57:28.554Z,55.33
2018-07-20T23:59:57.307Z,54.57
